Time;durP1;ratioP1;P1;durP2;ratioP2;P2;SDS_P1;SDS_P2;PMS_P1;PMS_P2;Temp;Humidity;BMP_temperature;BMP_pressure;BME280_temperature;BME280_humidity;BME280_pressure;Samples;Min_cycle;Max_cycle;Signal;HPM_P1;HPM_P2
2022/06/08 00:01:38;;;;;;;2.30;1.87;;;15.50;99.90;;;;;;5080481;28;20430;-40
2022/06/08 00:04:05;;;;;;;2.70;2.40;;;15.50;99.90;;;;;;5080608;28;20432;-41
2022/06/08 00:06:31;;;;;;;1.90;1.70;;;15.50;99.90;;;;;;5078975;28;20181;-40
2022/06/08 00:08:57;;;;;;;4.30;1.67;;;15.50;99.90;;;;;;5079461;28;20446;-38
2022/06/08 00:11:23;;;;;;;2.03;1.83;;;15.50;99.90;;;;;;5078353;28;20429;-39
2022/06/08 00:13:49;;;;;;;2.60;1.80;;;15.60;99.90;;;;;;5079625;28;20229;-40
2022/06/08 00:16:15;;;;;;;3.00;1.97;;;15.60;99.90;;;;;;5079266;28;20471;-38
2022/06/08 00:18:44;;;;;;;4.50;2.00;;;15.70;99.90;;;;;;5079013;28;20578;-41
2022/06/08 00:21:11;;;;;;;2.20;2.00;;;15.80;99.90;;;;;;5078914;28;20445;-40
2022/06/08 00:23:37;;;;;;;2.43;2.07;;;15.80;99.90;;;;;;5061348;28;20924;-37
2022/06/08 00:26:04;;;;;;;4.70;2.00;;;15.90;99.90;;;;;;5078990;28;20518;-39
2022/06/08 00:28:31;;;;;;;2.60;2.13;;;15.90;99.90;;;;;;5078934;28;20479;-38
2022/06/08 00:30:57;;;;;;;2.80;2.20;;;15.90;99.90;;;;;;5079271;28;20423;-41
2022/06/08 00:33:23;;;;;;;2.20;2.00;;;15.90;99.90;;;;;;5078394;28;20415;-38
2022/06/08 00:35:48;;;;;;;3.07;2.20;;;15.90;99.90;;;;;;5079058;28;20725;-38
2022/06/08 00:38:15;;;;;;;2.23;2.00;;;15.90;99.90;;;;;;5078294;28;20217;-36
2022/06/08 00:41:29;;;;;;;2.10;1.77;;;15.90;99.90;;;;;;5078976;28;20426;-41
2022/06/08 00:43:55;;;;;;;2.90;2.37;;;15.90;99.90;;;;;;5032962;28;20213;-41
2022/06/08 00:46:21;;;;;;;3.23;2.50;;;15.90;99.90;;;;;;5078653;28;20428;-40
2022/06/08 00:48:56;;;;;;;2.57;2.00;;;15.90;99.90;;;;;;5082781;28;20425;-38
2022/06/08 00:51:22;;;;;;;2.77;2.57;;;15.90;99.90;;;;;;5081889;28;20184;-37
2022/06/08 00:53:53;;;;;;;2.43;2.23;;;15.90;99.90;;;;;;5079978;28;20514;-37
2022/06/08 00:56:23;;;;;;;3.20;2.27;;;15.80;99.90;;;;;;5078298;28;20236;-38
2022/06/08 00:58:48;;;;;;;4.97;2.20;;;15.80;99.90;;;;;;5077157;28;20768;-38
2022/06/08 01:01:14;;;;;;;2.43;2.23;;;15.70;99.90;;;;;;5078209;28;20427;-39
2022/06/08 01:03:40;;;;;;;2.40;2.20;;;15.60;99.90;;;;;;5078647;28;20544;-37
2022/06/08 01:06:21;;;;;;;2.77;1.97;;;15.60;99.90;;;;;;5077681;28;20443;-37
2022/06/08 01:08:50;;;;;;;2.70;2.50;;;15.60;99.90;;;;;;5077541;28;20420;-39
2022/06/08 01:11:27;;;;;;;3.20;2.40;;;15.60;99.90;;;;;;5077369;28;20435;-38
2022/06/08 01:13:55;;;;;;;2.43;2.13;;;15.70;99.90;;;;;;5078179;28;20424;-38
2022/06/08 01:16:41;;;;;;;2.17;1.97;;;15.80;99.90;;;;;;5077091;28;20490;-38
2022/06/08 01:19:07;;;;;;;2.43;2.23;;;15.80;99.90;;;;;;5059781;28;20420;-39
2022/06/08 01:21:33;;;;;;;3.50;2.73;;;15.80;99.90;;;;;;5076594;28;20496;-37
2022/06/08 01:24:01;;;;;;;2.17;1.97;;;15.80;99.90;;;;;;5077050;28;20427;-38
2022/06/08 01:26:41;;;;;;;2.73;2.40;;;15.80;99.90;;;;;;5077190;28;20190;-39
2022/06/08 01:29:18;;;;;;;2.60;2.40;;;15.80;99.90;;;;;;5077670;28;20475;-38
2022/06/08 01:31:44;;;;;;;3.03;2.20;;;15.80;99.90;;;;;;5077748;28;20493;-40
2022/06/08 01:34:17;;;;;;;3.33;1.90;;;15.80;99.90;;;;;;5077487;28;20409;-39
2022/06/08 01:36:57;;;;;;;2.77;2.57;;;15.70;99.90;;;;;;5077392;28;20198;-38
2022/06/08 01:39:45;;;;;;;3.17;2.50;;;15.80;99.90;;;;;;5076965;28;20425;-38
2022/06/08 01:42:30;;;;;;;2.70;2.13;;;15.80;99.90;;;;;;5077389;28;20422;-38
2022/06/08 01:48:01;;;;;;;5.57;2.63;;;15.80;99.90;;;;;;5077630;28;20478;-39
2022/06/08 01:50:35;;;;;;;2.70;2.50;;;15.80;99.90;;;;;;5077699;28;20455;-38
2022/06/08 01:53:15;;;;;;;3.00;2.63;;;15.80;99.90;;;;;;5077989;28;20808;-37
2022/06/08 01:55:54;;;;;;;2.60;2.40;;;15.80;99.90;;;;;;5077478;28;20518;-39
2022/06/08 01:58:39;;;;;;;2.30;2.10;;;15.80;99.80;;;;;;5077759;28;20424;-39
2022/06/08 02:01:44;;;;;;;2.77;2.57;;;15.70;99.90;;;;;;5077761;28;20531;-40
2022/06/08 02:04:14;;;;;;;2.43;2.00;;;15.70;99.90;;;;;;5036843;28;20833;-40
2022/06/08 02:06:40;;;;;;;2.73;2.30;;;15.70;99.90;;;;;;5076764;28;20516;-39
2022/06/08 02:09:18;;;;;;;2.47;2.17;;;15.60;99.90;;;;;;5076813;28;20421;-41
2022/06/08 02:11:51;;;;;;;3.00;2.50;;;15.60;99.90;;;;;;5077061;28;20659;-38
2022/06/08 02:14:27;;;;;;;2.20;2.00;;;15.60;99.90;;;;;;5075393;28;20578;-39
2022/06/08 02:16:55;;;;;;;3.13;2.10;;;15.60;99.90;;;;;;5075516;28;20528;-38
2022/06/08 02:19:26;;;;;;;2.40;2.20;;;15.60;99.80;;;;;;5075475;28;20448;-39
2022/06/08 02:21:56;;;;;;;2.67;2.47;;;15.60;99.70;;;;;;5076166;28;20459;-37
2022/06/08 02:24:26;;;;;;;4.20;3.10;;;15.50;99.40;;;;;;5075630;28;20708;-41
2022/06/08 02:27:00;;;;;;;4.80;2.30;;;15.50;99.50;;;;;;5073429;28;20443;-37
2022/06/08 02:29:36;;;;;;;3.50;2.63;;;15.50;99.40;;;;;;5075740;28;20851;-37
2022/06/08 02:34:28;;;;;;;4.03;2.43;;;15.40;99.30;;;;;;5059278;28;20439;-38
2022/06/08 02:34:57;;;;;;;3.50;2.70;;;15.30;99.20;;;;;;5076800;28;20498;-37
2022/06/08 02:37:28;;;;;;;2.77;2.27;;;15.20;99.20;;;;;;5077091;28;20546;-38
2022/06/08 02:40:06;;;;;;;2.67;2.47;;;15.00;99.50;;;;;;5075602;28;20400;-40
2022/06/08 02:42:37;;;;;;;2.80;2.60;;;15.00;99.90;;;;;;5059012;28;20428;-38
2022/06/08 02:45:14;;;;;;;4.10;2.37;;;14.90;99.90;;;;;;5076274;28;20443;-39
2022/06/08 02:47:41;;;;;;;3.07;2.77;;;14.90;99.60;;;;;;5079567;28;20438;-39
2022/06/08 02:50:22;;;;;;;4.07;2.80;;;14.90;99.00;;;;;;5079795;28;20910;-40
2022/06/08 02:52:50;;;;;;;6.43;2.57;;;14.90;98.90;;;;;;5079514;28;20519;-39
2022/06/08 02:55:49;;;;;;;5.70;2.80;;;14.70;98.90;;;;;;5079864;28;20559;-38
2022/06/08 02:58:22;;;;;;;2.87;2.57;;;14.70;99.20;;;;;;5059531;28;20713;-38
2022/06/08 03:01:12;;;;;;;3.00;2.00;;;14.50;99.10;;;;;;5079456;28;20418;-39
2022/06/08 03:03:50;;;;;;;4.77;2.70;;;14.40;99.30;;;;;;5078984;28;20408;-42
2022/06/08 03:06:21;;;;;;;4.00;2.50;;;14.20;99.40;;;;;;5078901;28;20496;-40
2022/06/08 03:08:52;;;;;;;4.13;2.33;;;14.10;99.90;;;;;;5080467;28;20469;-39
2022/06/08 03:11:18;;;;;;;3.20;2.80;;;14.20;99.90;;;;;;5079294;28;20420;-38
2022/06/08 03:13:50;;;;;;;3.33;2.60;;;14.20;99.90;;;;;;5062016;28;20532;-39
2022/06/08 03:16:29;;;;;;;6.77;2.60;;;14.30;99.40;;;;;;5079605;28;20707;-38
2022/06/08 03:18:55;;;;;;;3.90;2.50;;;14.30;99.30;;;;;;5078680;28;20416;-40
2022/06/08 03:21:20;;;;;;;3.23;2.60;;;14.40;99.10;;;;;;5078087;28;20508;-36
2022/06/08 03:23:48;;;;;;;3.33;2.50;;;14.30;98.80;;;;;;5060399;28;20428;-38
2022/06/08 03:26:14;;;;;;;3.20;2.30;;;14.30;98.80;;;;;;5078614;28;20189;-39
2022/06/08 03:28:40;;;;;;;3.70;2.87;;;14.30;98.80;;;;;;5078368;28;20480;-40
2022/06/08 03:31:05;;;;;;;3.83;2.60;;;14.20;98.90;;;;;;5078788;28;20434;-40
2022/06/08 03:33:31;;;;;;;3.80;2.60;;;14.10;98.70;;;;;;5078812;28;20592;-38
2022/06/08 03:35:57;;;;;;;3.43;2.60;;;14.10;98.70;;;;;;5080088;28;20201;-39
2022/06/08 03:38:22;;;;;;;4.13;2.30;;;14.10;98.90;;;;;;5080030;28;20255;-40
2022/06/08 03:40:48;;;;;;;3.70;2.57;;;14.00;98.80;;;;;;5079662;28;20287;-37
2022/06/08 03:43:14;;;;;;;3.20;2.90;;;14.10;98.80;;;;;;5079716;28;20376;-39
2022/06/08 03:45:45;;;;;;;5.90;2.47;;;14.10;99.20;;;;;;5079557;28;20608;-40
2022/06/08 03:48:11;;;;;;;5.50;2.67;;;14.20;98.90;;;;;;5078090;28;20487;-41
2022/06/08 03:50:40;;;;;;;6.23;2.70;;;14.30;98.80;;;;;;5079654;28;20912;-43
2022/06/08 03:53:15;;;;;;;3.13;2.77;;;14.40;98.50;;;;;;5078953;28;20416;-38
2022/06/08 03:55:41;;;;;;;3.70;2.50;;;14.40;98.30;;;;;;5077277;28;20459;-39
2022/06/08 03:58:07;;;;;;;2.93;2.43;;;14.60;98.00;;;;;;5073943;28;20462;-38
2022/06/08 04:00:36;;;;;;;2.53;2.30;;;14.40;97.70;;;;;;5075155;28;20431;-38
2022/06/08 04:03:03;;;;;;;2.40;2.20;;;14.40;98.20;;;;;;5074611;28;20478;-38
2022/06/08 04:05:29;;;;;;;4.53;2.30;;;14.50;98.20;;;;;;5074133;28;20534;-39
2022/06/08 04:07:55;;;;;;;3.17;2.43;;;14.50;98.20;;;;;;5075009;28;20511;-38
2022/06/08 04:10:20;;;;;;;3.97;2.53;;;14.50;98.10;;;;;;5076271;28;20179;-36
2022/06/08 04:12:46;;;;;;;2.57;2.17;;;14.70;98.00;;;;;;5076084;28;20443;-38
2022/06/08 04:15:41;;;;;;;4.07;2.10;;;14.80;98.10;;;;;;5077539;28;20205;-40
2022/06/08 04:17:57;;;;;;;8.90;3.33;;;14.90;97.70;;;;;;5079356;28;20462;-39
2022/06/08 04:20:23;;;;;;;4.27;2.80;;;15.00;97.40;;;;;;5078345;28;20421;-39
2022/06/08 04:22:49;;;;;;;3.40;2.83;;;15.00;97.50;;;;;;5077670;28;20198;-38
2022/06/08 04:25:14;;;;;;;4.80;3.10;;;15.10;97.50;;;;;;5078036;28;20189;-37
2022/06/08 04:27:40;;;;;;;2.57;2.37;;;15.00;97.20;;;;;;5078438;28;20189;-38
2022/06/08 04:30:06;;;;;;;3.00;2.40;;;14.90;97.50;;;;;;5077313;28;20290;-40
2022/06/08 04:32:32;;;;;;;4.67;2.50;;;14.90;97.40;;;;;;5076579;28;20186;-37
2022/06/08 04:34:58;;;;;;;7.63;2.63;;;14.90;97.50;;;;;;5079004;28;20526;-42
2022/06/08 04:37:24;;;;;;;3.50;2.57;;;15.00;97.30;;;;;;5078056;28;20248;-39
2022/06/08 04:39:49;;;;;;;3.27;2.20;;;15.10;97.60;;;;;;5076948;28;20179;-39
2022/06/08 04:42:15;;;;;;;2.33;1.93;;;15.20;96.80;;;;;;5076251;28;20245;-40
2022/06/08 04:44:41;;;;;;;3.33;2.17;;;15.20;97.00;;;;;;5075721;28;20209;-39
2022/06/08 04:47:08;;;;;;;5.00;2.10;;;15.20;97.20;;;;;;5076394;28;20166;-38
2022/06/08 04:49:35;;;;;;;2.70;2.20;;;15.30;96.70;;;;;;5076415;28;20179;-40
2022/06/08 04:52:01;;;;;;;5.10;2.50;;;15.30;96.50;;;;;;5075853;28;20424;-40
2022/06/08 04:54:27;;;;;;;3.13;2.30;;;15.30;96.20;;;;;;5075954;28;20409;-39
2022/06/08 04:56:52;;;;;;;2.00;1.77;;;15.30;96.20;;;;;;5076202;28;20665;-38
2022/06/08 04:59:18;;;;;;;4.17;2.53;;;15.40;96.80;;;;;;5076548;28;20183;-39
2022/06/08 05:01:44;;;;;;;5.13;2.67;;;15.50;96.40;;;;;;5076503;28;20574;-38
2022/06/08 05:04:09;;;;;;;5.50;1.93;;;15.50;95.60;;;;;;5075638;28;20182;-39
2022/06/08 05:06:35;;;;;;;3.63;2.10;;;15.50;95.70;;;;;;5073151;28;20213;-40
2022/06/08 05:09:01;;;;;;;3.53;2.40;;;15.40;95.70;;;;;;5073784;28;20243;-38
2022/06/08 05:11:27;;;;;;;2.20;1.90;;;15.40;96.00;;;;;;5073920;28;20520;-36
2022/06/08 05:13:52;;;;;;;3.20;2.90;;;15.30;96.40;;;;;;5074078;28;20187;-38
2022/06/08 05:16:18;;;;;;;4.13;2.20;;;15.30;96.50;;;;;;5074570;28;20468;-38
2022/06/08 05:18:44;;;;;;;4.60;2.50;;;15.30;96.60;;;;;;5075007;28;20195;-38
2022/06/08 05:21:09;;;;;;;5.17;2.53;;;15.40;96.50;;;;;;5074797;28;20506;-38
2022/06/08 05:23:38;;;;;;;3.33;3.03;;;15.40;96.80;;;;;;5075293;28;20174;-39
2022/06/08 05:26:04;;;;;;;4.90;2.70;;;15.50;96.20;;;;;;5081091;28;20627;-38
2022/06/08 05:28:30;;;;;;;6.43;2.10;;;15.60;96.20;;;;;;5094928;28;20813;-38
2022/06/08 05:30:56;;;;;;;7.57;2.40;;;15.70;96.30;;;;;;5095294;28;20843;-39
2022/06/08 05:33:24;;;;;;;5.47;2.73;;;15.80;96.60;;;;;;5094955;28;20694;-39
2022/06/08 05:35:50;;;;;;;4.67;2.07;;;15.90;95.50;;;;;;5094779;28;20888;-38
2022/06/08 05:38:16;;;;;;;4.70;2.90;;;16.00;95.30;;;;;;5094631;28;20438;-39
2022/06/08 05:40:41;;;;;;;4.43;2.33;;;16.10;95.10;;;;;;5095465;28;20715;-39
2022/06/08 05:43:10;;;;;;;5.70;2.90;;;16.10;94.50;;;;;;5094675;28;20193;-38
2022/06/08 05:45:35;;;;;;;2.97;2.33;;;16.20;95.00;;;;;;5092694;28;20177;-37
2022/06/08 05:48:01;;;;;;;3.70;1.93;;;16.20;94.50;;;;;;5095857;28;20701;-40
2022/06/08 05:50:28;;;;;;;5.90;2.97;;;16.20;94.40;;;;;;5094573;28;20416;-38
2022/06/08 05:52:54;;;;;;;5.80;2.03;;;16.20;94.60;;;;;;5095001;28;20411;-38
2022/06/08 05:55:22;;;;;;;3.37;1.97;;;16.20;94.20;;;;;;5094228;28;20477;-40
2022/06/08 05:57:47;;;;;;;6.20;2.17;;;16.30;94.60;;;;;;5094513;28;20415;-39
2022/06/08 06:00:16;;;;;;;2.97;2.50;;;16.40;95.00;;;;;;5094346;28;20407;-42
2022/06/08 06:02:43;;;;;;;3.70;1.83;;;16.60;94.70;;;;;;5094854;28;20173;-39
2022/06/08 06:05:12;;;;;;;2.93;1.67;;;16.90;94.70;;;;;;5092880;28;20432;-41
2022/06/08 06:07:39;;;;;;;3.00;2.10;;;17.10;94.20;;;;;;5094829;28;20585;-40
2022/06/08 06:10:06;;;;;;;3.60;1.73;;;17.40;94.00;;;;;;5095014;28;20425;-39
2022/06/08 06:12:32;;;;;;;2.17;1.70;;;17.60;93.70;;;;;;5095440;28;20427;-40
2022/06/08 06:15:01;;;;;;;2.83;2.00;;;17.90;92.70;;;;;;5094478;28;20548;-40
2022/06/08 06:17:28;;;;;;;3.20;2.77;;;17.90;91.90;;;;;;5093832;28;20421;-38
2022/06/08 06:19:53;;;;;;;2.10;1.70;;;18.00;91.60;;;;;;5096011;28;20415;-39
2022/06/08 06:22:19;;;;;;;4.27;1.83;;;18.10;91.90;;;;;;5098702;28;21091;-40
2022/06/08 06:24:44;;;;;;;5.80;2.07;;;18.20;91.80;;;;;;5099889;28;20192;-39
2022/06/08 06:27:10;;;;;;;4.43;2.13;;;18.30;91.80;;;;;;5100618;28;20180;-42
2022/06/08 06:29:35;;;;;;;2.80;1.73;;;18.40;91.70;;;;;;5098402;28;20668;-42
2022/06/08 06:32:07;;;;;;;2.57;1.80;;;18.50;91.60;;;;;;5098419;28;20176;-40
2022/06/08 06:34:33;;;;;;;4.07;1.87;;;18.60;91.50;;;;;;5096765;28;20210;-39
2022/06/08 06:36:58;;;;;;;4.63;1.97;;;18.60;91.20;;;;;;5097529;28;20463;-39
2022/06/08 06:39:28;;;;;;;4.53;2.00;;;18.70;91.20;;;;;;5098115;28;20427;-39
2022/06/08 06:41:55;;;;;;;2.83;2.00;;;18.80;90.70;;;;;;5097629;28;20180;-38
2022/06/08 06:44:21;;;;;;;4.27;1.80;;;18.80;90.20;;;;;;5097790;28;20495;-39
2022/06/08 06:46:47;;;;;;;3.17;2.23;;;18.80;90.10;;;;;;5097861;28;20941;-41
2022/06/08 06:49:12;;;;;;;4.60;1.90;;;18.80;89.90;;;;;;5098970;28;20420;-39
2022/06/08 06:51:39;;;;;;;3.10;1.83;;;18.80;87.60;;;;;;5098571;28;20215;-40
2022/06/08 06:54:06;;;;;;;5.63;2.40;;;18.80;88.80;;;;;;5100402;28;20196;-41
2022/06/08 06:56:32;;;;;;;3.10;1.80;;;18.90;89.50;;;;;;5099173;28;20485;-39
2022/06/08 06:58:59;;;;;;;3.70;2.00;;;19.10;88.70;;;;;;5100161;28;20450;-38
2022/06/08 07:01:24;;;;;;;3.67;1.80;;;19.30;88.50;;;;;;5098581;28;20442;-39
2022/06/08 07:03:50;;;;;;;3.90;2.13;;;19.60;88.40;;;;;;5100014;28;20411;-45
2022/06/08 07:06:16;;;;;;;5.30;2.33;;;19.80;86.10;;;;;;5098101;28;20237;-49
2022/06/08 07:08:41;;;;;;;6.60;2.30;;;19.80;84.00;;;;;;5096301;28;20274;-47
2022/06/08 07:13:52;;;;;;;6.10;2.10;;;19.50;85.20;;;;;;5097905;28;20183;-45
2022/06/08 07:16:19;;;;;;;6.20;2.60;;;19.30;85.30;;;;;;5096907;28;20470;-47
2022/06/08 07:18:45;;;;;;;5.47;2.27;;;19.50;86.20;;;;;;5094426;28;20430;-46
2022/06/08 07:21:11;;;;;;;8.37;2.20;;;19.60;85.80;;;;;;5095522;28;20487;-48
2022/06/08 07:23:37;;;;;;;3.33;1.90;;;19.40;85.50;;;;;;5096152;28;20180;-45
2022/06/08 07:26:03;;;;;;;2.60;2.23;;;19.30;85.70;;;;;;5096387;28;20433;-49
2022/06/08 07:28:29;;;;;;;3.40;2.23;;;19.40;86.10;;;;;;5094184;28;20484;-46
2022/06/08 07:30:54;;;;;;;3.50;2.00;;;19.40;86.00;;;;;;5095927;28;20406;-47
2022/06/08 07:33:20;;;;;;;3.03;1.67;;;19.60;86.50;;;;;;5097114;28;20179;-44
2022/06/08 07:35:46;;;;;;;4.33;2.00;;;19.80;86.00;;;;;;5097249;28;20477;-44
2022/06/08 07:38:12;;;;;;;8.93;2.17;;;20.00;84.70;;;;;;5095429;28;20497;-46
2022/06/08 07:40:38;;;;;;;4.50;2.00;;;20.20;83.90;;;;;;5094777;28;20422;-48
2022/06/08 07:43:04;;;;;;;4.80;2.53;;;20.30;83.20;;;;;;5096554;28;20474;-45
2022/06/08 07:45:30;;;;;;;6.47;2.37;;;20.10;83.60;;;;;;5095675;28;20188;-46
2022/06/08 07:50:42;;;;;;;3.97;2.10;;;20.10;85.00;;;;;;5076878;28;20434;-46
2022/06/08 07:53:08;;;;;;;5.43;1.90;;;20.50;84.50;;;;;;5096579;28;20423;-46
2022/06/08 07:55:34;;;;;;;4.27;2.03;;;20.60;82.20;;;;;;5098170;28;20467;-46
2022/06/08 07:57:59;;;;;;;2.53;1.60;;;20.40;82.60;;;;;;5096810;28;20506;-46
2022/06/08 08:00:26;;;;;;;6.73;2.43;;;20.60;81.90;;;;;;5097264;28;20358;-46
2022/06/08 08:02:52;;;;;;;5.73;1.87;;;20.80;82.40;;;;;;5098072;28;20178;-46
2022/06/08 08:05:19;;;;;;;3.10;1.90;;;21.00;81.00;;;;;;5099051;28;20429;-46
2022/06/08 08:07:45;;;;;;;3.70;2.30;;;20.70;81.90;;;;;;5096450;28;20450;-45
2022/06/08 08:10:18;;;;;;;3.10;1.80;;;20.90;79.00;;;;;;5094757;28;20492;-46
2022/06/08 08:12:44;;;;;;;3.00;1.90;;;21.00;79.80;;;;;;5094696;28;20418;-48
2022/06/08 08:15:10;;;;;;;2.70;2.03;;;21.00;80.00;;;;;;5095035;28;20472;-46
2022/06/08 08:17:36;;;;;;;2.33;1.47;;;21.40;80.90;;;;;;5095132;28;20413;-47
2022/06/08 08:20:04;;;;;;;4.03;1.83;;;21.80;78.90;;;;;;5094436;28;20911;-45
2022/06/08 08:22:30;;;;;;;4.53;1.93;;;22.10;77.00;;;;;;5095832;28;20175;-49
2022/06/08 08:24:55;;;;;;;3.80;1.97;;;22.10;73.40;;;;;;5095751;28;20517;-44
2022/06/08 08:27:21;;;;;;;5.00;1.90;;;22.20;72.10;;;;;;5096380;28;20180;-47
2022/06/08 08:29:47;;;;;;;6.40;1.60;;;22.00;70.70;;;;;;5094081;28;20635;-48
2022/06/08 08:32:12;;;;;;;4.00;2.00;;;22.40;73.30;;;;;;5094201;28;20492;-46
2022/06/08 08:34:38;;;;;;;6.17;1.97;;;22.60;70.20;;;;;;5094244;28;20630;-46
2022/06/08 08:37:04;;;;;;;4.40;1.67;;;22.70;70.30;;;;;;5095278;28;20240;-47
2022/06/08 08:39:30;;;;;;;5.23;1.60;;;23.20;69.00;;;;;;5094755;28;20452;-46
2022/06/08 08:44:45;;;;;;;3.53;1.67;;;23.20;62.50;;;;;;5096638;28;20510;-45
2022/06/08 08:47:34;;;;;;;3.33;1.40;;;23.20;63.70;;;;;;5096460;28;20431;-47
2022/06/08 08:50:15;;;;;;;3.83;1.83;;;23.50;63.90;;;;;;5095343;28;20417;-47
2022/06/08 08:52:47;;;;;;;3.17;1.40;;;24.10;61.80;;;;;;5094850;28;20493;-48
2022/06/08 08:55:27;;;;;;;2.53;1.77;;;24.30;60.00;;;;;;5095147;28;20503;-50
2022/06/08 08:58:15;;;;;;;4.47;1.83;;;23.70;61.00;;;;;;5094617;28;21027;-46
2022/06/08 09:01:02;;;;;;;6.00;1.60;;;23.00;63.30;;;;;;5096020;28;20421;-42
2022/06/08 09:03:28;;;;;;;4.57;2.10;;;22.60;65.00;;;;;;5054582;28;20423;-45
2022/06/08 09:06:07;;;;;;;5.90;1.70;;;22.50;65.40;;;;;;5095876;28;20537;-48
2022/06/08 09:08:33;;;;;;;3.73;2.00;;;22.40;63.30;;;;;;5094757;28;20438;-47
2022/06/08 09:11:00;;;;;;;5.63;1.80;;;22.30;63.30;;;;;;5092402;28;20709;-46
2022/06/08 09:13:48;;;;;;;2.57;1.20;;;22.30;64.10;;;;;;5092003;28;20433;-48
2022/06/08 09:16:35;;;;;;;3.10;1.77;;;22.30;65.00;;;;;;5052148;28;20472;-45
2022/06/08 09:19:24;;;;;;;2.77;1.40;;;22.40;63.70;;;;;;5093026;28;20410;-45
2022/06/08 09:21:55;;;;;;;5.17;2.63;;;22.50;62.90;;;;;;5085058;28;20427;-49
2022/06/08 09:24:28;;;;;;;4.30;1.60;;;22.80;62.40;;;;;;5093792;28;20411;-45
2022/06/08 09:27:10;;;;;;;2.90;1.47;;;23.10;60.10;;;;;;5094842;28;20418;-45
2022/06/08 09:29:51;;;;;;;3.70;2.00;;;23.50;60.70;;;;;;5095088;28;20471;-44
2022/06/08 09:32:39;;;;;;;4.00;1.30;;;23.60;60.40;;;;;;5097104;28;20842;-44
2022/06/08 09:35:31;;;;;;;3.43;1.43;;;23.60;56.80;;;;;;5096824;28;20546;-44
2022/06/08 09:38:04;;;;;;;4.13;1.40;;;23.60;56.80;;;;;;5087128;28;20423;-46
2022/06/08 09:40:57;;;;;;;2.40;1.40;;;23.50;58.40;;;;;;5095144;28;20439;-44
2022/06/08 09:43:50;;;;;;;3.57;1.80;;;23.80;58.20;;;;;;5093390;28;20572;-43
2022/06/08 09:52:37;;;;;;;3.27;1.83;;;23.90;58.10;;;;;;5093054;28;20433;-50
2022/06/08 09:55:12;;;;;;;4.37;1.80;;;23.70;59.40;;;;;;5093319;28;20474;-46
2022/06/08 09:57:41;;;;;;;2.57;1.60;;;23.40;58.80;;;;;;5093819;28;20690;-45
2022/06/08 10:00:18;;;;;;;2.80;1.90;;;23.40;58.70;;;;;;5094321;28;20443;-46
2022/06/08 10:03:12;;;;;;;1.90;1.40;;;23.60;58.60;;;;;;5093517;28;20456;-48
2022/06/08 10:05:49;;;;;;;2.33;1.20;;;23.50;57.90;;;;;;5093736;28;20440;-50
2022/06/08 10:08:22;;;;;;;3.77;1.77;;;23.40;57.50;;;;;;5093469;28;20443;-45
2022/06/08 10:11:34;;;;;;;2.80;1.33;;;23.10;56.60;;;;;;5089943;28;20434;-44
2022/06/08 10:14:27;;;;;;;2.93;1.70;;;23.10;58.20;;;;;;5089110;28;20408;-44
2022/06/08 10:16:58;;;;;;;2.63;1.70;;;23.80;58.30;;;;;;5090458;28;20470;-43
2022/06/08 10:19:30;;;;;;;3.43;1.40;;;24.50;56.60;;;;;;5090909;28;20415;-48
2022/06/08 10:21:56;;;;;;;3.77;2.00;;;24.70;56.60;;;;;;5091198;28;20439;-43
2022/06/08 10:24:30;;;;;;;4.23;1.80;;;24.80;55.70;;;;;;5092150;28;20420;-45
2022/06/08 10:27:16;;;;;;;3.23;1.70;;;25.10;54.70;;;;;;5093328;28;20425;-45
2022/06/08 10:30:15;;;;;;;2.33;1.37;;;25.50;54.10;;;;;;5090175;28;20466;-44
2022/06/08 10:33:03;;;;;;;3.10;1.40;;;25.20;49.30;;;;;;5004869;28;20423;-45
2022/06/08 10:35:43;;;;;;;3.70;1.20;;;25.20;47.80;;;;;;5087394;28;20643;-46
2022/06/08 10:38:23;;;;;;;3.27;1.80;;;25.60;45.60;;;;;;5088975;28;20415;-48
2022/06/08 10:41:00;;;;;;;3.33;1.37;;;26.10;46.50;;;;;;5086813;28;20430;-48
2022/06/08 10:43:29;;;;;;;2.87;1.00;;;26.00;47.00;;;;;;5091235;28;20867;-50
2022/06/08 10:46:03;;;;;;;3.90;1.60;;;26.30;46.50;;;;;;5093321;28;20724;-45
2022/06/08 10:48:35;;;;;;;3.37;1.63;;;26.40;46.60;;;;;;5093797;28;20418;-46
2022/06/08 10:51:30;;;;;;;1.40;1.17;;;26.40;46.90;;;;;;5093455;28;20512;-45
2022/06/08 10:56:55;;;;;;;3.37;1.60;;;26.30;46.50;;;;;;5076999;28;20479;-46
2022/06/08 10:59:24;;;;;;;2.97;1.53;;;26.10;47.00;;;;;;5092508;28;20429;-44
2022/06/08 11:01:53;;;;;;;2.20;1.13;;;25.90;46.30;;;;;;5090702;28;20455;-46
2022/06/08 11:04:30;;;;;;;2.03;1.10;;;26.00;46.30;;;;;;5093162;28;20423;-43
2022/06/08 11:07:16;;;;;;;2.67;1.00;;;25.90;43.70;;;;;;5093059;28;20417;-47
2022/06/08 11:09:46;;;;;;;2.80;1.20;;;25.90;43.70;;;;;;5096770;28;20467;-47
2022/06/08 11:12:12;;;;;;;2.67;1.53;;;25.90;44.00;;;;;;5096390;28;20413;-47
2022/06/08 11:14:43;;;;;;;2.80;1.10;;;25.60;43.50;;;;;;5097066;28;20420;-46
2022/06/08 11:17:36;;;;;;;2.10;0.97;;;25.90;44.40;;;;;;5096808;28;20216;-48
2022/06/08 11:20:32;;;;;;;1.70;1.07;;;26.40;43.90;;;;;;5095221;28;20444;-46
2022/06/08 11:23:11;;;;;;;2.63;1.23;;;26.90;42.80;;;;;;5096882;28;20420;-45
2022/06/08 11:26:09;;;;;;;2.40;1.20;;;26.60;42.80;;;;;;5095123;28;20606;-46
2022/06/08 11:28:40;;;;;;;2.03;0.90;;;26.80;43.10;;;;;;5076337;28;20490;-49
2022/06/08 11:31:12;;;;;;;2.30;1.37;;;26.70;42.50;;;;;;5096908;28;20433;-47
2022/06/08 11:33:47;;;;;;;2.30;1.50;;;26.70;42.00;;;;;;5094248;28;20463;-44
2022/06/08 11:36:25;;;;;;;3.23;1.13;;;26.70;42.10;;;;;;5094563;28;20556;-46
2022/06/08 11:38:57;;;;;;;3.40;1.20;;;26.50;42.60;;;;;;5096809;28;20413;-46
2022/06/08 11:41:41;;;;;;;2.13;1.40;;;26.10;42.60;;;;;;5095365;28;20703;-49
2022/06/08 11:44:17;;;;;;;2.00;1.20;;;26.10;42.70;;;;;;5096875;28;20795;-45
2022/06/08 11:47:05;;;;;;;2.80;1.40;;;26.20;42.90;;;;;;5097833;28;20456;-48
2022/06/08 11:49:38;;;;;;;3.30;1.57;;;26.70;42.60;;;;;;5086374;28;20438;-46
2022/06/08 11:52:28;;;;;;;4.33;1.73;;;27.00;41.60;;;;;;5097938;28;20429;-47
2022/06/08 11:55:03;;;;;;;2.63;1.20;;;27.30;41.30;;;;;;5094816;28;20842;-45
2022/06/08 11:57:29;;;;;;;2.30;1.27;;;27.70;40.90;;;;;;5096803;28;20417;-47
2022/06/08 11:59:56;;;;;;;4.77;1.70;;;28.40;39.80;;;;;;5095707;28;20441;-47
2022/06/08 12:02:42;;;;;;;2.57;1.27;;;27.50;39.40;;;;;;5094144;28;20707;-46
2022/06/08 12:05:08;;;;;;;3.60;1.50;;;26.90;40.70;;;;;;5094361;28;20414;-45
2022/06/08 12:07:44;;;;;;;3.07;1.60;;;26.80;41.70;;;;;;5098148;28;21027;-47
2022/06/08 12:10:16;;;;;;;2.03;1.30;;;26.90;41.20;;;;;;5097221;28;20422;-47
2022/06/08 12:12:44;;;;;;;3.83;1.53;;;26.30;41.20;;;;;;5096257;28;20409;-44
2022/06/08 12:15:33;;;;;;;1.97;1.27;;;26.10;41.80;;;;;;5097631;28;20475;-44
2022/06/08 12:18:39;;;;;;;2.23;1.20;;;26.40;41.80;;;;;;5096079;28;20459;-44
2022/06/08 12:21:21;;;;;;;4.13;1.43;;;26.80;41.50;;;;;;5047863;28;20410;-45
2022/06/08 12:24:11;;;;;;;2.37;1.10;;;26.50;41.90;;;;;;5098338;28;20421;-50
2022/06/08 12:26:50;;;;;;;2.03;1.13;;;26.50;42.10;;;;;;5097675;28;20503;-48
2022/06/08 12:29:37;;;;;;;1.30;0.90;;;26.50;41.50;;;;;;5097775;28;20461;-45
2022/06/08 12:32:06;;;;;;;1.67;1.10;;;26.30;41.30;;;;;;5098784;28;20408;-48
2022/06/08 12:34:48;;;;;;;3.00;1.43;;;26.50;41.90;;;;;;5098340;28;20405;-47
2022/06/08 12:37:35;;;;;;;2.30;1.07;;;27.10;41.50;;;;;;5097233;28;20417;-48
2022/06/08 12:40:25;;;;;;;2.07;1.30;;;27.20;40.70;;;;;;5097119;28;20416;-48
2022/06/08 12:42:58;;;;;;;2.93;1.37;;;26.80;41.20;;;;;;5096945;28;20421;-45
2022/06/08 12:45:36;;;;;;;3.73;1.60;;;26.40;41.10;;;;;;5096889;28;20666;-48
2022/06/08 12:48:21;;;;;;;4.13;2.10;;;26.20;42.00;;;;;;5095478;28;20468;-47
2022/06/08 12:50:47;;;;;;;2.40;1.20;;;26.10;42.30;;;;;;5095967;28;20710;-48
2022/06/08 12:53:13;;;;;;;2.67;1.40;;;26.00;42.50;;;;;;5095614;28;20848;-48
2022/06/08 12:55:40;;;;;;;3.10;1.60;;;26.00;42.80;;;;;;5095887;28;20469;-48
2022/06/08 12:58:09;;;;;;;3.13;1.23;;;26.10;42.70;;;;;;5095984;28;20265;-46
2022/06/08 13:00:36;;;;;;;3.50;1.50;;;26.00;43.10;;;;;;5095522;28;20523;-45
2022/06/08 13:03:20;;;;;;;2.53;1.53;;;25.60;42.90;;;;;;5095748;28;20428;-44
2022/06/08 13:05:46;;;;;;;3.20;1.60;;;25.10;43.40;;;;;;5094393;28;20417;-46
2022/06/08 13:08:25;;;;;;;2.63;1.13;;;25.00;43.90;;;;;;5094136;28;20639;-47
2022/06/08 13:10:52;;;;;;;1.60;1.17;;;24.90;43.80;;;;;;5093644;28;20424;-48
2022/06/08 13:13:21;;;;;;;6.10;1.60;;;24.90;44.20;;;;;;5095112;28;20453;-48
2022/06/08 13:15:48;;;;;;;7.63;1.67;;;24.80;44.60;;;;;;5095135;28;20902;-44
2022/06/08 13:18:17;;;;;;;2.90;1.27;;;24.70;44.40;;;;;;5094973;28;21078;-46
2022/06/08 13:20:43;;;;;;;1.90;1.00;;;24.50;44.60;;;;;;5095109;28;21096;-43
2022/06/08 13:23:09;;;;;;;2.80;1.30;;;24.40;45.00;;;;;;5094414;28;20562;-48
2022/06/08 13:25:36;;;;;;;2.50;1.60;;;24.30;44.80;;;;;;5095028;28;20424;-47
2022/06/08 13:28:34;;;;;;;3.07;1.60;;;24.00;45.50;;;;;;5094242;28;20421;-48
2022/06/08 13:31:00;;;;;;;2.43;1.13;;;23.90;45.80;;;;;;5059811;28;20455;-46
2022/06/08 13:36:21;;;;;;;1.90;1.37;;;23.80;46.70;;;;;;5095436;28;20476;-45